Time;durP1;ratioP1;P1;durP2;ratioP2;P2;SDS_P1;SDS_P2;PMS_P1;PMS_P2;Temp;Humidity;BMP_temperature;BMP_pressure;BME280_temperature;BME280_humidity;BME280_pressure;Samples;Min_cycle;Max_cycle;Signal;HPM_P1;HPM_P2
2022/08/28 00:01:14;;;;;;;;;;;13.80;99.90;;;;;;5144557;27;19920;-64
2022/08/28 00:03:41;;;;;;;;;;;13.90;99.90;;;;;;5127470;27;19923;-64
2022/08/28 00:06:07;;;;;;;;;;;14.00;99.90;;;;;;5109824;27;19930;-64
2022/08/28 00:08:33;;;;;;;;;;;13.70;99.90;;;;;;5110843;27;19927;-64
2022/08/28 00:10:59;;;;;;;;;;;13.70;99.90;;;;;;5127236;27;19973;-64
2022/08/28 00:13:25;;;;;;;;;;;13.60;99.90;;;;;;5134138;27;19988;-64
2022/08/28 00:15:52;;;;;;;;;;;13.70;99.90;;;;;;5110507;27;19993;-64
2022/08/28 00:18:18;;;;;;;;;;;13.60;99.90;;;;;;5126751;27;20466;-64
2022/08/28 00:20:45;;;;;;;;;;;13.90;99.90;;;;;;5121911;27;19919;-64
2022/08/28 00:23:10;;;;;;;;;;;13.60;99.90;;;;;;5130060;27;20303;-64
2022/08/28 00:25:36;;;;;;;;;;;13.50;99.90;;;;;;5110175;27;19926;-64
2022/08/28 00:28:04;;;;;;;;;;;13.50;99.90;;;;;;5094648;27;20009;-64
2022/08/28 00:30:39;;;;;;;;;;;13.50;99.90;;;;;;5126812;27;20299;-64
2022/08/28 00:33:07;;;;;;;;;;;13.40;99.90;;;;;;5130827;27;19919;-65
2022/08/28 00:35:32;;;;;;;;;;;13.40;99.90;;;;;;5135012;27;19924;-64
2022/08/28 00:37:58;;;;;;;;;;;13.40;99.90;;;;;;5109584;27;19984;-64
2022/08/28 00:40:26;;;;;;;;;;;13.30;99.90;;;;;;5093748;27;19934;-64
2022/08/28 00:42:53;;;;;;;;;;;13.30;99.90;;;;;;5123060;27;19929;-64
2022/08/28 00:45:19;;;;;;;;;;;13.30;99.90;;;;;;5131278;27;20642;-64
2022/08/28 00:47:45;;;;;;;;;;;13.30;99.90;;;;;;5113104;27;20541;-64
2022/08/28 00:50:13;;;;;;;;;;;13.30;99.90;;;;;;5140292;27;19919;-64
2022/08/28 00:52:39;;;;;;;;;;;13.30;99.90;;;;;;5131838;27;20376;-64
2022/08/28 00:55:07;;;;;;;;;;;13.20;99.90;;;;;;5132352;27;20299;-64
2022/08/28 00:57:35;;;;;;;;;;;13.20;99.90;;;;;;5111196;27;19927;-64
2022/08/28 01:00:03;;;;;;;;;;;13.20;99.90;;;;;;5128821;27;19928;-64
2022/08/28 01:02:30;;;;;;;;;;;13.10;99.90;;;;;;5114867;27;19920;-64
2022/08/28 01:04:56;;;;;;;;;;;13.10;99.90;;;;;;5111974;27;20009;-64
2022/08/28 01:07:22;;;;;;;;;;;13.10;99.90;;;;;;5130754;27;20250;-64
2022/08/28 01:09:51;;;;;;;;;;;13.10;99.90;;;;;;5110912;27;20029;-65
2022/08/28 01:12:20;;;;;;;;;;;13.00;99.90;;;;;;5133033;27;20695;-64
2022/08/28 01:14:48;;;;;;;;;;;13.00;99.90;;;;;;5130447;27;19919;-64
2022/08/28 01:17:14;;;;;;;;;;;13.00;99.90;;;;;;5136062;27;20400;-64
2022/08/28 01:20:03;;;;;;;;;;;13.00;99.90;;;;;;5112998;27;20288;-64
2022/08/28 01:22:38;;;;;;;;;;;13.00;99.90;;;;;;5112689;27;19997;-64
2022/08/28 01:25:15;;;;;;;;;;;12.90;99.90;;;;;;5134798;27;19926;-64
2022/08/28 01:27:41;;;;;;;;;;;12.90;99.90;;;;;;5130509;27;20006;-64
2022/08/28 01:30:11;;;;;;;;;;;12.90;99.90;;;;;;5110978;27;20010;-64
2022/08/28 01:32:39;;;;;;;;;;;12.90;99.90;;;;;;5110781;27;19930;-64
2022/08/28 01:35:08;;;;;;;;;;;13.00;99.90;;;;;;5142958;27;19950;-64
2022/08/28 01:37:35;;;;;;;;;;;12.80;99.90;;;;;;5137735;27;19942;-64
2022/08/28 01:40:01;;;;;;;;;;;12.80;99.90;;;;;;5117228;27;20034;-64
2022/08/28 01:42:27;;;;;;;;;;;12.80;99.90;;;;;;5135808;27;20019;-64
2022/08/28 01:44:53;;;;;;;;;;;12.80;99.90;;;;;;5109971;27;20207;-64
2022/08/28 01:47:19;;;;;;;;;;;12.80;99.90;;;;;;5113783;27;19919;-64
2022/08/28 01:49:44;;;;;;;;;;;12.70;99.90;;;;;;5127799;27;19925;-64
2022/08/28 01:52:10;;;;;;;;;;;12.70;99.90;;;;;;5131523;27;19919;-64
2022/08/28 01:54:35;;;;;;;;;;;12.70;99.90;;;;;;5131919;27;19941;-64
2022/08/28 01:57:01;;;;;;;;;;;12.70;99.90;;;;;;5127460;27;20471;-64
2022/08/28 01:59:27;;;;;;;;;;;12.60;99.90;;;;;;5109874;27;19923;-64
2022/08/28 02:01:53;;;;;;;;;;;12.80;99.90;;;;;;5110404;27;19923;-64
2022/08/28 02:04:19;;;;;;;;;;;12.80;99.90;;;;;;5116720;27;19924;-64
2022/08/28 02:06:45;;;;;;;;;;;12.60;99.90;;;;;;5128327;27;19972;-64
2022/08/28 02:09:11;;;;;;;;;;;12.50;99.90;;;;;;5131303;27;19928;-64
2022/08/28 02:11:38;;;;;;;;;;;12.50;99.90;;;;;;5110246;27;19931;-64
2022/08/28 02:14:04;;;;;;;;;;;12.50;99.90;;;;;;5137101;27;19919;-64
2022/08/28 02:16:30;;;;;;;;;;;12.70;99.90;;;;;;5131040;27;20554;-64
2022/08/28 02:18:56;;;;;;;;;;;12.50;99.90;;;;;;5132147;27;19927;-64
2022/08/28 02:21:21;;;;;;;;;;;12.50;99.90;;;;;;5110699;27;19981;-64
2022/08/28 02:23:47;;;;;;;;;;;12.50;99.90;;;;;;5142461;27;20291;-64
2022/08/28 02:26:13;;;;;;;;;;;12.40;99.90;;;;;;5129931;27;20314;-64
2022/08/28 02:28:39;;;;;;;;;;;12.40;99.90;;;;;;5093012;27;19958;-64
2022/08/28 02:31:07;;;;;;;;;;;12.40;99.90;;;;;;5110447;27;19919;-64
2022/08/28 02:33:34;;;;;;;;;;;12.40;99.90;;;;;;5110901;27;19931;-64
2022/08/28 02:35:59;;;;;;;;;;;12.30;99.90;;;;;;5112081;27;19919;-64
2022/08/28 02:38:25;;;;;;;;;;;12.30;99.90;;;;;;5128692;27;20260;-64
2022/08/28 02:40:51;;;;;;;;;;;12.50;99.90;;;;;;5130000;27;20367;-64
2022/08/28 02:43:17;;;;;;;;;;;12.30;99.90;;;;;;5134958;27;19923;-64
2022/08/28 02:45:42;;;;;;;;;;;12.30;99.90;;;;;;5130061;27;19942;-64
2022/08/28 02:48:08;;;;;;;;;;;12.30;99.90;;;;;;5134580;27;19926;-64
2022/08/28 02:50:34;;;;;;;;;;;12.20;99.90;;;;;;5147646;27;19919;-64
2022/08/28 02:52:59;;;;;;;;;;;12.20;99.90;;;;;;5127065;27;19994;-64
2022/08/28 02:55:25;;;;;;;;;;;12.20;99.90;;;;;;5093110;27;19919;-64
2022/08/28 02:57:51;;;;;;;;;;;12.20;99.90;;;;;;5123275;27;19919;-64
2022/08/28 03:00:19;;;;;;;;;;;12.10;99.90;;;;;;5129476;27;19989;-64
2022/08/28 03:02:45;;;;;;;;;;;12.20;99.90;;;;;;5126443;27;19942;-64
2022/08/28 03:05:11;;;;;;;;;;;12.10;99.90;;;;;;5112819;27;19919;-64
2022/08/28 03:07:37;;;;;;;;;;;12.10;99.90;;;;;;5110530;27;19968;-65
2022/08/28 03:10:06;;;;;;;;;;;12.10;99.90;;;;;;5136708;27;20317;-64
2022/08/28 03:12:33;;;;;;;;;;;12.10;99.90;;;;;;5130160;27;20014;-64
2022/08/28 03:14:58;;;;;;;;;;;12.00;99.90;;;;;;5112137;27;19919;-64
2022/08/28 03:17:24;;;;;;;;;;;12.00;99.90;;;;;;5128605;27;20397;-64
2022/08/28 03:19:50;;;;;;;;;;;12.00;99.90;;;;;;5126859;27;20479;-65
2022/08/28 03:22:16;;;;;;;;;;;12.00;99.90;;;;;;5109375;27;19926;-64
2022/08/28 03:24:43;;;;;;;;;;;12.00;99.90;;;;;;5128692;27;19983;-65
2022/08/28 03:27:09;;;;;;;;;;;12.30;99.90;;;;;;5134401;27;20001;-64
2022/08/28 03:29:35;;;;;;;;;;;12.00;99.90;;;;;;5108176;27;19994;-64
2022/08/28 03:32:00;;;;;;;;;;;12.40;99.90;;;;;;5127534;27;20034;-64
2022/08/28 03:34:26;;;;;;;;;;;11.90;99.90;;;;;;5128617;27;19919;-64
2022/08/28 03:36:51;;;;;;;;;;;11.90;99.90;;;;;;5128022;27;20363;-64
2022/08/28 03:39:17;;;;;;;;;;;11.90;99.90;;;;;;5136796;27;20291;-64
2022/08/28 03:41:43;;;;;;;;;;;11.80;99.90;;;;;;5133526;27;20291;-64
2022/08/28 03:44:08;;;;;;;;;;;11.80;99.90;;;;;;5126899;27;20410;-65
2022/08/28 03:46:34;;;;;;;;;;;11.80;99.90;;;;;;5127909;27;19923;-64
2022/08/28 03:49:01;;;;;;;;;;;11.80;99.90;;;;;;5125961;27;20395;-64
2022/08/28 03:51:30;;;;;;;;;;;11.70;99.90;;;;;;5138034;27;19920;-64
2022/08/28 03:53:56;;;;;;;;;;;11.80;99.90;;;;;;5127994;27;19965;-64
2022/08/28 03:56:23;;;;;;;;;;;11.80;99.90;;;;;;5139092;27;19934;-64
2022/08/28 03:58:50;;;;;;;;;;;11.70;99.90;;;;;;5127984;27;19970;-64
2022/08/28 04:01:16;;;;;;;;;;;12.20;99.90;;;;;;5125304;27;19923;-64
2022/08/28 04:03:41;;;;;;;;;;;11.80;99.90;;;;;;5108595;27;20610;-64
2022/08/28 04:06:07;;;;;;;;;;;11.70;99.90;;;;;;5112717;27;20344;-64
2022/08/28 04:08:32;;;;;;;;;;;11.70;99.90;;;;;;5109969;27;19920;-64
2022/08/28 04:10:59;;;;;;;;;;;11.70;99.90;;;;;;5111218;27;19955;-64
2022/08/28 04:13:25;;;;;;;;;;;11.70;99.90;;;;;;5132202;27;20298;-64
2022/08/28 04:15:54;;;;;;;;;;;11.70;99.90;;;;;;5108652;27;20080;-64
2022/08/28 04:18:20;;;;;;;;;;;11.70;99.90;;;;;;5126926;27;19923;-64
2022/08/28 04:20:56;;;;;;;;;;;11.70;99.90;;;;;;5129891;27;19919;-64
2022/08/28 04:23:22;;;;;;;;;;;11.80;99.90;;;;;;5113577;27;19931;-63
2022/08/28 04:25:47;;;;;;;;;;;11.70;99.90;;;;;;5130492;27;19919;-64
2022/08/28 04:28:13;;;;;;;;;;;11.70;99.90;;;;;;5113345;27;19927;-64
2022/08/28 04:30:40;;;;;;;;;;;12.00;99.90;;;;;;5113211;27;19965;-64
2022/08/28 04:33:05;;;;;;;;;;;11.60;99.90;;;;;;5111508;27;20336;-64
2022/08/28 04:35:31;;;;;;;;;;;11.90;99.90;;;;;;5132492;27;20107;-64
2022/08/28 04:37:56;;;;;;;;;;;11.60;99.90;;;;;;5112972;27;20264;-64
2022/08/28 04:40:23;;;;;;;;;;;11.60;99.90;;;;;;5138057;27;19941;-64
2022/08/28 04:42:49;;;;;;;;;;;11.60;99.90;;;;;;5131647;27;19927;-64
2022/08/28 04:45:15;;;;;;;;;;;11.60;99.90;;;;;;5094488;27;19919;-64
2022/08/28 04:47:40;;;;;;;;;;;11.60;99.90;;;;;;5113847;27;20296;-64
2022/08/28 04:50:06;;;;;;;;;;;11.50;99.90;;;;;;5150851;27;19923;-64
2022/08/28 04:52:32;;;;;;;;;;;11.50;99.90;;;;;;5129813;27;19928;-64
2022/08/28 04:54:57;;;;;;;;;;;11.50;99.90;;;;;;5129201;27;19919;-64
2022/08/28 04:57:23;;;;;;;;;;;11.50;99.90;;;;;;5131912;27;19923;-64
2022/08/28 04:59:48;;;;;;;;;;;11.50;99.90;;;;;;5113610;27;20657;-64
2022/08/28 05:02:14;;;;;;;;;;;11.60;99.90;;;;;;5133684;27;19931;-64
2022/08/28 05:04:40;;;;;;;;;;;11.50;99.90;;;;;;5112440;27;19920;-64
2022/08/28 05:07:05;;;;;;;;;;;11.50;99.90;;;;;;5111677;27;19923;-64
2022/08/28 05:09:31;;;;;;;;;;;11.50;99.90;;;;;;5131308;27;20019;-64
2022/08/28 05:12:00;;;;;;;;;;;11.50;99.90;;;;;;5130698;27;19924;-64
2022/08/28 05:14:26;;;;;;;;;;;11.50;99.90;;;;;;5130058;27;20002;-64
2022/08/28 05:16:52;;;;;;;;;;;11.60;99.90;;;;;;5131092;27;20378;-64
2022/08/28 05:19:18;;;;;;;;;;;11.60;99.90;;;;;;5137674;27;20516;-64
2022/08/28 05:21:43;;;;;;;;;;;11.60;99.90;;;;;;5113991;27;19925;-64
2022/08/28 05:24:09;;;;;;;;;;;11.70;99.90;;;;;;5127454;27;20005;-64
2022/08/28 05:26:36;;;;;;;;;;;11.90;99.90;;;;;;5112766;27;19938;-64
2022/08/28 05:29:02;;;;;;;;;;;12.00;99.90;;;;;;5095035;27;20465;-64
2022/08/28 05:31:29;;;;;;;;;;;12.30;99.90;;;;;;5116201;27;19972;-64
2022/08/28 05:33:54;;;;;;;;;;;12.70;99.90;;;;;;5112340;27;19923;-64
2022/08/28 05:36:21;;;;;;;;;;;12.80;99.90;;;;;;5094124;27;20074;-64
2022/08/28 05:38:47;;;;;;;;;;;12.90;99.90;;;;;;5130647;27;19923;-64
2022/08/28 05:41:21;;;;;;;;;;;13.20;99.90;;;;;;5111544;27;20295;-64
2022/08/28 05:43:47;;;;;;;;;;;12.90;99.90;;;;;;5110924;27;19963;-64
2022/08/28 05:46:14;;;;;;;;;;;12.90;99.90;;;;;;5111849;27;19969;-64
2022/08/28 05:48:41;;;;;;;;;;;13.20;99.90;;;;;;5132106;27;19920;-64
2022/08/28 05:51:08;;;;;;;;;;;13.00;99.90;;;;;;5129300;27;20388;-64
2022/08/28 05:53:35;;;;;;;;;;;13.10;99.90;;;;;;5112956;27;19923;-64
2022/08/28 05:56:02;;;;;;;;;;;13.20;99.90;;;;;;5109570;27;19927;-64
2022/08/28 05:58:27;;;;;;;;;;;13.20;99.90;;;;;;5133972;27;19926;-64
2022/08/28 06:00:53;;;;;;;;;;;13.30;99.90;;;;;;5130705;27;20481;-64
2022/08/28 06:03:19;;;;;;;;;;;13.30;99.90;;;;;;5129392;27;20001;-64
2022/08/28 06:05:45;;;;;;;;;;;13.40;99.90;;;;;;5110029;27;19920;-65
2022/08/28 06:08:10;;;;;;;;;;;13.40;99.90;;;;;;5129891;27;19920;-64
2022/08/28 06:10:42;;;;;;;;;;;13.50;99.90;;;;;;5128918;27;20040;-64
2022/08/28 06:13:08;;;;;;;;;;;13.50;99.90;;;;;;5129456;27;19971;-65
2022/08/28 06:15:39;;;;;;;;;;;13.50;99.90;;;;;;5130808;27;20006;-64
2022/08/28 06:18:05;;;;;;;;;;;13.60;99.90;;;;;;5116483;27;19926;-64
2022/08/28 06:20:34;;;;;;;;;;;13.70;99.90;;;;;;5129437;27;19924;-64
2022/08/28 06:23:00;;;;;;;;;;;13.70;99.90;;;;;;5142115;27;19926;-64
2022/08/28 06:25:25;;;;;;;;;;;13.80;99.90;;;;;;5113055;27;20307;-64
2022/08/28 06:27:51;;;;;;;;;;;14.00;99.90;;;;;;5118858;27;20389;-64
2022/08/28 06:30:17;;;;;;;;;;;14.10;99.90;;;;;;5133290;27;19923;-64
2022/08/28 06:32:42;;;;;;;;;;;14.30;99.90;;;;;;5111727;27;19919;-64
2022/08/28 06:35:08;;;;;;;;;;;14.50;99.90;;;;;;5108224;27;19969;-64
2022/08/28 06:37:34;;;;;;;;;;;14.40;99.90;;;;;;5129772;27;19975;-64
2022/08/28 06:40:00;;;;;;;;;;;14.50;99.90;;;;;;5110849;27;19946;-65
2022/08/28 06:42:27;;;;;;;;;;;14.70;99.90;;;;;;5109523;27;20333;-64
2022/08/28 06:44:52;;;;;;;;;;;14.60;99.90;;;;;;5128566;27;19930;-64
2022/08/28 06:47:18;;;;;;;;;;;14.70;99.90;;;;;;5129415;27;19923;-64
2022/08/28 06:49:43;;;;;;;;;;;14.80;99.90;;;;;;5110117;27;20002;-64
2022/08/28 06:52:09;;;;;;;;;;;14.90;99.90;;;;;;5128659;27;19920;-64
2022/08/28 06:54:35;;;;;;;;;;;14.90;99.90;;;;;;5129657;27;19926;-65
2022/08/28 06:57:00;;;;;;;;;;;15.00;99.90;;;;;;5108111;27;19927;-64
2022/08/28 06:59:26;;;;;;;;;;;15.10;99.90;;;;;;5093105;27;19969;-65
2022/08/28 07:01:53;;;;;;;;;;;15.20;99.90;;;;;;5145004;27;20018;-64
2022/08/28 07:04:18;;;;;;;;;;;15.30;99.90;;;;;;5125967;27;20509;-64
2022/08/28 07:06:44;;;;;;;;;;;15.40;99.90;;;;;;5125276;27;19930;-64
2022/08/28 07:09:10;;;;;;;;;;;15.50;99.90;;;;;;5128636;27;19919;-65
2022/08/28 07:11:36;;;;;;;;;;;15.70;99.90;;;;;;5128918;27;19919;-65
2022/08/28 07:14:02;;;;;;;;;;;15.80;99.90;;;;;;5109340;27;19927;-64
2022/08/28 07:16:30;;;;;;;;;;;15.90;99.90;;;;;;5109530;27;19923;-65
2022/08/28 07:18:56;;;;;;;;;;;16.10;99.90;;;;;;5127570;27;19919;-65
2022/08/28 07:21:22;;;;;;;;;;;16.20;99.90;;;;;;5108570;27;19923;-65
2022/08/28 07:23:48;;;;;;;;;;;16.40;99.90;;;;;;5110891;27;20355;-65
2022/08/28 07:26:15;;;;;;;;;;;16.60;99.90;;;;;;5135972;27;19923;-64
2022/08/28 07:28:41;;;;;;;;;;;16.80;99.90;;;;;;5109844;27;20063;-65
2022/08/28 07:31:12;;;;;;;;;;;17.00;99.90;;;;;;5091337;27;20022;-65
2022/08/28 07:33:38;;;;;;;;;;;17.10;99.90;;;;;;5107735;27;19973;-65
2022/08/28 07:36:08;;;;;;;;;;;17.30;99.90;;;;;;5118986;27;19931;-65
2022/08/28 07:38:34;;;;;;;;;;;17.50;99.90;;;;;;5134779;27;20315;-65
2022/08/28 07:40:59;;;;;;;;;;;17.60;99.90;;;;;;5106770;27;20145;-65
2022/08/28 07:46:13;;;;;;;;;;;17.90;99.90;;;;;;5120700;27;19974;-66
2022/08/28 07:48:39;;;;;;;;;;;18.00;99.90;;;;;;5108248;27;19995;-65
2022/08/28 07:51:06;;;;;;;;;;;18.00;99.90;;;;;;5091566;27;20011;-65
2022/08/28 07:53:31;;;;;;;;;;;18.20;99.90;;;;;;5128041;27;19946;-65
2022/08/28 07:55:57;;;;;;;;;;;18.20;99.90;;;;;;5110363;27;20387;-65
2022/08/28 07:58:25;;;;;;;;;;;18.30;99.90;;;;;;5126146;27;19920;-65
2022/08/28 08:00:52;;;;;;;;;;;18.40;99.90;;;;;;5127038;27;19982;-65
2022/08/28 08:03:18;;;;;;;;;;;18.50;99.90;;;;;;5127782;27;20356;-65
2022/08/28 08:05:57;;;;;;;;;;;18.60;99.90;;;;;;5131350;27;19919;-65
2022/08/28 08:08:23;;;;;;;;;;;18.70;99.90;;;;;;5090612;27;19919;-65
2022/08/28 08:10:59;;;;;;;;;;;18.80;99.90;;;;;;5130553;27;19919;-65
2022/08/28 08:13:25;;;;;;;;;;;18.90;99.90;;;;;;5128749;27;19984;-65
2022/08/28 08:15:50;;;;;;;;;;;19.00;99.90;;;;;;5109069;27;20355;-65
2022/08/28 08:18:16;;;;;;;;;;;19.20;99.90;;;;;;5130834;27;20379;-66
2022/08/28 08:20:41;;;;;;;;;;;19.00;99.90;;;;;;5131114;27;20306;-65
2022/08/28 08:23:07;;;;;;;;;;;18.90;99.90;;;;;;5127905;27;20522;-65
2022/08/28 08:25:32;;;;;;;;;;;18.90;99.90;;;;;;5132153;27;19919;-65
2022/08/28 08:27:58;;;;;;;;;;;19.00;99.90;;;;;;5107761;27;19919;-65
2022/08/28 08:30:24;;;;;;;;;;;19.20;99.90;;;;;;5132939;27;19927;-66
2022/08/28 08:32:50;;;;;;;;;;;19.30;99.90;;;;;;5107236;27;19951;-66
2022/08/28 08:35:16;;;;;;;;;;;19.40;99.90;;;;;;5123720;27;19927;-65
2022/08/28 08:37:41;;;;;;;;;;;19.40;99.90;;;;;;5127282;27;19949;-65
2022/08/28 08:40:10;;;;;;;;;;;19.30;99.90;;;;;;5131019;27;19946;-65
2022/08/28 08:42:37;;;;;;;;;;;19.20;99.90;;;;;;5127841;27;19967;-65
2022/08/28 08:45:04;;;;;;;;;;;19.20;99.90;;;;;;5131522;27;20019;-66
2022/08/28 08:47:46;;;;;;;;;;;19.20;99.90;;;;;;5128986;27;19972;-67
2022/08/28 08:50:16;;;;;;;;;;;19.40;99.90;;;;;;5129519;27;19926;-66
2022/08/28 08:52:47;;;;;;;;;;;19.50;99.90;;;;;;5107799;27;19969;-66
2022/08/28 08:55:26;;;;;;;;;;;19.50;99.90;;;;;;5111774;27;19927;-67
2022/08/28 08:58:09;;;;;;;;;;;19.40;99.90;;;;;;5127738;27;19976;-65
2022/08/28 09:00:41;;;;;;;;;;;19.30;99.90;;;;;;5120915;27;19920;-64
2022/08/28 09:03:18;;;;;;;;;;;19.20;99.90;;;;;;5100377;27;19931;-65
2022/08/28 09:06:01;;;;;;;;;;;19.30;99.90;;;;;;5128201;27;20011;-66
2022/08/28 09:08:44;;;;;;;;;;;19.30;99.90;;;;;;5089783;27;19923;-66
2022/08/28 09:11:28;;;;;;;;;;;19.20;99.90;;;;;;5104794;27;20380;-65
2022/08/28 09:13:58;;;;;;;;;;;19.10;99.90;;;;;;5125197;27;20374;-65
2022/08/28 09:16:28;;;;;;;;;;;19.10;99.90;;;;;;5121532;27;20347;-65
2022/08/28 09:18:55;;;;;;;;;;;19.20;99.90;;;;;;5137515;27;19923;-65
2022/08/28 09:21:30;;;;;;;;;;;19.20;99.90;;;;;;5104196;27;19923;-65
2022/08/28 09:23:59;;;;;;;;;;;19.20;99.90;;;;;;5124717;27;19969;-64
2022/08/28 09:26:24;;;;;;;;;;;19.20;99.90;;;;;;5091221;27;19923;-66
2022/08/28 09:29:12;;;;;;;;;;;19.20;99.90;;;;;;5108734;27;19923;-65
2022/08/28 09:31:40;;;;;;;;;;;19.20;99.90;;;;;;5128431;27;19931;-65
2022/08/28 09:34:15;;;;;;;;;;;19.10;99.90;;;;;;5104107;27;20006;-65
2022/08/28 09:36:41;;;;;;;;;;;19.10;99.90;;;;;;5120628;27;19928;-65
2022/08/28 09:39:07;;;;;;;;;;;19.10;99.90;;;;;;5118095;27;19931;-65
2022/08/28 09:44:21;;;;;;;;;;;19.30;99.90;;;;;;5101370;27;20302;-65
2022/08/28 09:46:48;;;;;;;;;;;19.40;99.90;;;;;;5126351;27;19923;-65
2022/08/28 09:49:14;;;;;;;;;;;19.60;99.90;;;;;;5120056;27;20235;-65
2022/08/28 09:51:40;;;;;;;;;;;19.70;99.90;;;;;;5122400;27;19923;-65
2022/08/28 09:54:11;;;;;;;;;;;19.70;99.90;;;;;;5124567;27;19934;-65
2022/08/28 09:56:39;;;;;;;;;;;19.60;99.90;;;;;;5119740;27;19928;-66
2022/08/28 09:59:06;;;;;;;;;;;19.50;99.90;;;;;;5124578;27;19974;-65
2022/08/28 10:01:34;;;;;;;;;;;19.50;99.90;;;;;;5129726;27;20272;-65
2022/08/28 10:04:00;;;;;;;;;;;19.40;99.90;;;;;;5106758;27;19934;-65
2022/08/28 10:06:28;;;;;;;;;;;19.30;99.90;;;;;;5103208;27;20430;-64
2022/08/28 10:09:00;;;;;;;;;;;19.30;99.90;;;;;;5102708;27;20359;-65
2022/08/28 10:11:25;;;;;;;;;;;19.30;99.90;;;;;;5128589;27;20481;-65
2022/08/28 10:13:58;;;;;;;;;;;19.30;99.90;;;;;;5126761;27;20008;-65
2022/08/28 10:16:56;;;;;;;;;;;19.20;99.90;;;;;;5125988;27;19924;-64
2022/08/28 10:19:29;;;;;;;;;;;19.10;99.90;;;;;;5062510;27;19927;-65
2022/08/28 10:22:18;;;;;;;;;;;19.00;99.90;;;;;;5107506;27;19923;-65
2022/08/28 10:24:55;;;;;;;;;;;19.00;99.90;;;;;;5111710;27;19930;-65
2022/08/28 10:27:21;;;;;;;;;;;19.20;99.90;;;;;;5122486;27;19930;-66
2022/08/28 10:30:04;;;;;;;;;;;19.40;99.90;;;;;;5097791;27;20787;-68
2022/08/28 10:32:48;;;;;;;;;;;19.60;99.90;;;;;;5098143;27;19920;-69
2022/08/28 10:35:17;;;;;;;;;;;19.70;99.90;;;;;;5116024;27;19930;-69
2022/08/28 10:37:43;;;;;;;;;;;19.80;99.90;;;;;;5083380;27;20016;-68
2022/08/28 10:40:09;;;;;;;;;;;19.90;99.90;;;;;;5137052;27;19979;-70
2022/08/28 10:42:37;;;;;;;;;;;19.80;99.90;;;;;;5137911;27;20316;-67
2022/08/28 10:45:09;;;;;;;;;;;19.70;99.90;;;;;;5117394;27;20370;-69
2022/08/28 10:47:36;;;;;;;;;;;19.60;99.90;;;;;;5105893;27;19941;-72
2022/08/28 10:50:22;;;;;;;;;;;19.60;99.90;;;;;;5108382;27;19952;-70
2022/08/28 10:53:09;;;;;;;;;;;19.80;99.90;;;;;;5090905;27;19970;-71
2022/08/28 10:55:37;;;;;;;;;;;20.00;99.90;;;;;;5106212;27;19960;-71
2022/08/28 10:58:03;;;;;;;;;;;20.10;99.90;;;;;;5112460;27;19923;-71
2022/08/28 11:00:29;;;;;;;;;;;20.00;99.90;;;;;;5106051;27;19919;-71
2022/08/28 11:03:09;;;;;;;;;;;20.00;99.90;;;;;;5106584;27;19968;-71
2022/08/28 11:05:39;;;;;;;;;;;20.10;99.90;;;;;;5122374;27;19919;-72
2022/08/28 11:08:07;;;;;;;;;;;20.10;99.90;;;;;;5138792;27;19919;-70
2022/08/28 11:11:13;;;;;;;8.95;1.70;;;20.10;99.90;;;;;;5075729;27;20865;-69
2022/08/28 11:13:51;;;;;;;6.03;1.73;;;20.20;99.90;;;;;;5079161;28;20048;-69
2022/08/28 11:16:18;;;;;;;6.20;1.80;;;20.30;99.90;;;;;;5062371;28;20518;-70
2022/08/28 11:19:13;;;;;;;6.28;2.25;;;20.30;99.90;;;;;;5075776;28;20052;-69
2022/08/28 11:21:57;;;;;;;6.57;2.10;;;20.30;99.90;;;;;;5069893;28;20097;-72
2022/08/28 11:24:34;;;;;;;7.97;1.73;;;20.30;99.90;;;;;;5081285;28;20041;-70
2022/08/28 11:27:08;;;;;;;7.25;1.90;;;20.30;99.90;;;;;;5075995;28;20125;-71
2022/08/28 11:29:57;;;;;;;7.43;1.88;;;20.20;99.90;;;;;;5069831;28;20118;-69
2022/08/28 11:32:32;;;;;;;5.55;1.65;;;20.10;99.90;;;;;;5072793;28;20056;-70
2022/08/28 11:35:01;;;;;;;8.82;1.90;;;20.10;99.90;;;;;;5079638;28;20044;-69
2022/08/28 11:37:48;;;;;;;7.88;1.90;;;20.10;99.90;;;;;;5084933;28;20043;-69
2022/08/28 11:40:42;;;;;;;7.10;1.73;;;20.20;99.90;;;;;;5074051;28;20040;-70
2022/08/28 11:43:14;;;;;;;6.63;1.60;;;20.20;99.90;;;;;;5090804;28;20036;-70
2022/08/28 11:45:46;;;;;;;11.63;1.50;;;20.30;99.90;;;;;;5059257;28;20044;-71
2022/08/28 11:48:21;;;;;;;5.07;1.40;;;20.30;99.90;;;;;;5073674;28;20044;-71
2022/08/28 11:51:01;;;;;;;7.28;1.85;;;20.20;99.90;;;;;;5081233;28;20046;-71
2022/08/28 11:53:57;;;;;;;8.88;1.58;;;20.20;99.90;;;;;;5080745;28;20082;-71
2022/08/28 11:56:50;;;;;;;7.88;2.05;;;20.30;99.90;;;;;;5076223;28;20082;-70
2022/08/28 11:59:24;;;;;;;8.50;1.70;;;20.30;99.90;;;;;;5078041;28;20044;-71
2022/08/28 12:01:50;;;;;;;10.45;1.88;;;20.30;99.90;;;;;;5073971;28;20075;-71
2022/08/28 12:04:20;;;;;;;5.90;1.50;;;20.20;99.90;;;;;;5059407;28;20037;-70
2022/08/28 12:06:53;;;;;;;7.65;1.77;;;20.10;99.90;;;;;;5071902;28;20086;-70
2022/08/28 12:09:25;;;;;;;8.10;1.70;;;20.00;99.90;;;;;;5093076;28;20555;-71
2022/08/28 12:11:53;;;;;;;6.47;1.80;;;20.10;99.90;;;;;;5076128;28;20052;-71
2022/08/28 12:14:25;;;;;;;5.78;1.67;;;20.20;99.90;;;;;;5076152;28;20044;-71
2022/08/28 12:16:59;;;;;;;5.82;1.60;;;20.20;99.90;;;;;;5062149;28;20055;-70
2022/08/28 12:20:07;;;;;;;9.65;1.92;;;20.30;99.90;;;;;;5095004;28;20040;-70
2022/08/28 12:22:55;;;;;;;5.43;1.98;;;20.30;99.90;;;;;;5063227;28;20053;-72
2022/08/28 12:25:38;;;;;;;9.38;2.08;;;20.30;99.90;;;;;;5057280;28;20044;-71
2022/08/28 12:28:26;;;;;;;4.55;1.42;;;20.40;99.90;;;;;;5057618;28;20428;-71
2022/08/28 12:31:04;;;;;;;8.02;2.00;;;20.40;99.90;;;;;;5046307;28;20040;-71
2022/08/28 12:33:49;;;;;;;5.70;1.40;;;20.50;99.90;;;;;;5061502;28;20074;-70
2022/08/28 12:36:17;;;;;;;6.78;1.38;;;20.60;99.90;;;;;;5064488;28;20048;-70
2022/08/28 12:38:50;;;;;;;6.60;1.80;;;20.50;99.90;;;;;;5049375;28;20123;-70
2022/08/28 12:41:17;;;;;;;8.77;1.90;;;20.50;99.90;;;;;;5059921;28;20125;-70
2022/08/28 12:43:46;;;;;;;8.73;1.88;;;20.40;99.90;;;;;;5061384;28;20464;-70
2022/08/28 12:46:17;;;;;;;7.43;1.67;;;20.30;99.90;;;;;;5063131;28;20040;-70
2022/08/28 12:48:55;;;;;;;4.70;1.27;;;20.30;99.90;;;;;;5044977;28;20414;-70
2022/08/28 12:51:29;;;;;;;6.78;1.48;;;20.30;99.90;;;;;;5055648;28;20052;-69
2022/08/28 12:53:58;;;;;;;8.48;1.27;;;20.30;99.90;;;;;;5056813;28;20050;-71
2022/08/28 12:56:28;;;;;;;7.38;1.40;;;20.40;99.90;;;;;;5053175;28;20049;-72
2022/08/28 12:58:55;;;;;;;9.85;1.73;;;20.30;99.90;;;;;;5062275;28;20067;-71
2022/08/28 13:01:29;;;;;;;7.43;1.67;;;20.20;99.90;;;;;;5041262;28;20048;-71
2022/08/28 13:04:31;;;;;;;7.05;1.60;;;20.10;99.90;;;;;;5043472;28;20451;-71
2022/08/28 13:07:05;;;;;;;6.38;1.42;;;20.10;99.90;;;;;;5058313;28;20081;-71
2022/08/28 13:09:31;;;;;;;5.72;1.40;;;20.10;99.90;;;;;;5076205;28;20067;-70
2022/08/28 13:11:56;;;;;;;7.82;1.63;;;20.10;99.90;;;;;;5056774;28;20056;-69
2022/08/28 13:14:36;;;;;;;6.18;1.40;;;20.10;99.90;;;;;;5063791;28;20048;-71
2022/08/28 13:17:02;;;;;;;7.32;1.40;;;20.10;99.90;;;;;;5062818;28;20086;-71
2022/08/28 13:19:30;;;;;;;6.00;1.27;;;20.20;99.90;;;;;;5045096;28;20334;-71
2022/08/28 13:22:08;;;;;;;5.40;1.40;;;20.20;99.90;;;;;;5055996;28;20277;-71
2022/08/28 13:24:34;;;;;;;3.28;0.98;;;20.20;99.90;;;;;;5059069;28;20052;-72
2022/08/28 13:27:05;;;;;;;5.63;1.13;;;20.20;99.90;;;;;;5061303;28;20075;-71
2022/08/28 13:29:32;;;;;;;8.13;1.75;;;20.20;99.90;;;;;;5061558;28;20174;-70
2022/08/28 13:32:01;;;;;;;4.68;1.27;;;20.20;99.90;;;;;;5042821;28;20068;-71
2022/08/28 13:34:30;;;;;;;7.78;1.42;;;20.10;99.90;;;;;;5044653;28;20639;-70
2022/08/28 13:37:02;;;;;;;8.15;1.77;;;20.10;99.90;;;;;;5055485;28;20056;-70
2022/08/28 13:39:29;;;;;;;5.72;1.33;;;20.20;99.90;;;;;;5055806;28;20150;-71
2022/08/28 13:42:15;;;;;;;6.78;1.35;;;20.20;99.90;;;;;;5056872;28;20061;-71
2022/08/28 13:44:54;;;;;;;9.20;1.30;;;20.20;99.90;;;;;;5044862;28;20535;-71
2022/08/28 13:47:20;;;;;;;5.88;1.23;;;20.10;99.90;;;;;;5055369;28;20050;-69
2022/08/28 13:49:46;;;;;;;5.80;1.38;;;20.00;99.90;;;;;;5047051;28;20032;-71
2022/08/28 13:52:12;;;;;;;7.93;1.30;;;20.00;99.90;;;;;;5062990;28;20037;-70
2022/08/28 13:54:38;;;;;;;5.07;1.20;;;20.00;99.90;;;;;;5038372;28;20051;-71
2022/08/28 13:57:04;;;;;;;5.93;1.42;;;20.00;99.90;;;;;;5057985;28;20128;-71
2022/08/28 13:59:31;;;;;;;6.20;1.40;;;20.00;99.90;;;;;;5075689;28;20049;-71
2022/08/28 14:04:43;;;;;;;6.07;1.80;;;20.00;99.90;;;;;;5062497;28;20332;-71
2022/08/28 14:07:11;;;;;;;6.15;1.25;;;20.00;99.90;;;;;;5057591;28;20041;-69
2022/08/28 14:09:37;;;;;;;4.50;1.10;;;19.90;99.90;;;;;;5055820;28;20091;-69
2022/08/28 14:12:04;;;;;;;4.15;1.10;;;19.90;99.90;;;;;;5064967;28;20055;-69
2022/08/28 14:14:31;;;;;;;7.22;1.60;;;19.90;99.90;;;;;;5064436;28;20041;-70
2022/08/28 14:16:57;;;;;;;6.25;1.33;;;19.90;99.90;;;;;;5060718;28;20036;-70